ADDS METAR Data INFO
IDs: Format: Raw Decoded Include TAF

Data at: 0800 UTC 23 Jul 2018

KOKB 230752Z AUTO 00000KT 9SM CLR 19/17 A2997 RMK AO2 SLP147 T01890167 402780172
KOKB 230652Z AUTO 00000KT 9SM CLR 19/17 A2998 RMK AO2 SLP152 T01940167
KOKB 230552Z AUTO 04004KT 8SM CLR 21/17 A2999 RMK AO2 SLP154 T02060172 10261 20206 50009
KOKB 230452Z AUTO 25007KT 8SM CLR 22/18 A2999 RMK AO2 SLP155 T02170178
KOKB 230352Z AUTO 25005KT 10SM CLR 22/18 A2997 RMK AO2 SLP149 T02220183
KOKB 230252Z AUTO 25007KT 9SM CLR 23/18 A2996 RMK AO2 SLP144 T02280183 53001
KOKB 230152Z AUTO 27011KT 10SM CLR 24/18 A2994 RMK AO2 SLP139 T02390183
KOKB 230052Z AUTO 26014KT 10SM CLR 26/17 A2994 RMK AO2 SLP139 T02560172
KOKB 222352Z AUTO 25013KT 10SM CLR 26/18 A2996 RMK AO2 SLP143 T02610183 10278 20256 56009
KOKB 222252Z AUTO 27010KT 10SM CLR 27/18 A2996 RMK AO2 SLP144 T02720183
KOKB 222152Z AUTO 26009KT 10SM CLR 27/19 A2997 RMK AO2 SLP148 T02670189
KOKB 222052Z AUTO 28010G15KT 10SM CLR 27/18 A2998 RMK AO2 SLP153 T02720178 58011
KOKB 221952Z AUTO 26009G18KT 10SM CLR 27/18 A3000 RMK AO2 SLP158 T02720183
KOKB 221852Z AUTO 24010KT 10SM CLR 27/18 A3001 RMK AO2 SLP162 T02720183
KOKB 221752Z AUTO 24009KT 10SM CLR 26/18 A3002 RMK AO2 SLP164 T02610183 10261 20172 56003
KOKB 221652Z AUTO 23007KT 10SM CLR 25/18 A3002 RMK AO2 SLP164 T02500178
KOKB 221552Z AUTO 22005KT 9SM CLR 25/18 A3002 RMK AO2 SLP165 T02500178
KOKB 221452Z AUTO 00000KT 10SM CLR 22/17 A3002 RMK AO2 SLP167 T02220172 51006
KOKB 221352Z AUTO 00000KT 9SM CLR 19/17 A3002 RMK AO2 SLP166 T01940167
KOKB 221252Z AUTO 00000KT 10SM CLR 18/16 A3002 RMK AO2 SLP163 T01780156
KOKB 221152Z AUTO 00000KT 10SM CLR 18/16 A3001 RMK AO2 SLP160 T01830156 10211 20178 56002
KOKB 221052Z AUTO 00000KT 10SM CLR 19/16 A3001 RMK AO2 SLP161 T01890161
KOKB 220952Z AUTO 00000KT 10SM CLR 20/17 A3001 RMK AO2 SLP161 T02000172
KOKB 220852Z AUTO 00000KT 10SM CLR 20/17 A3001 RMK AO2 SLP163 T02000172 58002
KOKB 220752Z AUTO 00000KT 9SM CLR 20/17 A3002 RMK AO2 SLP164 T02000172 402720200
KOKB 220652Z AUTO 00000KT 10SM CLR 21/17 A3002 RMK AO2 SLP167 T02110172
KOKB 220552Z AUTO 00000KT 10SM CLR 21/17 A3002 RMK AO2 SLP165 T02110172 10250 20211 51016
KOKB 220452Z AUTO 30003KT 10SM CLR 22/18 A3002 RMK AO2 SLP164 T02170178
KOKB 220410Z AUTO 28004KT 10SM SCT015 22/18 A3001 RMK AO2 T02170178
KOKB 220352Z AUTO 29003KT 10SM BKN016 22/18 A3000 RMK AO2 SLP157 T02170178
KOKB 220252Z AUTO 28005KT 10SM BKN015 22/18 A2997 RMK AO2 SLP149 T02220178 53012
KOKB 220223Z AUTO 26005KT 10SM BKN015 23/18 A2996 RMK AO2 T02280183
KOKB 220152Z AUTO 24009KT 10SM FEW015 23/18 A2995 RMK AO2 SLP143 T02330183
KOKB 220052Z AUTO 27009KT 10SM CLR 24/18 A2995 RMK AO2 SLP140 T02440183
KOKB 212352Z AUTO 24011KT 10SM CLR 25/18 A2994 RMK AO2 SLP137 T02500178 10272 20244 56007
KOKB 212252Z AUTO 29012KT 10SM CLR 26/17 A2994 RMK AO2 SLP137 T02560172
KOKB 212152Z AUTO 25013KT 10SM CLR 26/18 A2994 RMK AO2 SLP139 T02610183
KOKB 212052Z AUTO 27012KT 10SM CLR 26/18 A2996 RMK AO2 SLP144 T02560183 58012